sensor_id;sensor_type;location;lat;lon;timestamp;pressure;altitude;pressure_sealevel;temperature;humidity
59190;BME280;50749;51.636;4.948;2023-05-20T00:00:27;102489.53;;;19.17;45.39
59190;BME280;50749;51.636;4.948;2023-05-20T00:03:13;102487.88;;;19.16;45.69
59190;BME280;50749;51.636;4.948;2023-05-20T00:05:38;102496.19;;;19.16;45.42
59190;BME280;50749;51.636;4.948;2023-05-20T00:08:05;102489.53;;;19.17;45.50
59190;BME280;50749;51.636;4.948;2023-05-20T00:10:34;102493.44;;;19.16;45.74
59190;BME280;50749;51.636;4.948;2023-05-20T00:13:01;102493.75;;;19.14;46.05
59190;BME280;50749;51.636;4.948;2023-05-20T00:15:27;102492.13;;;19.13;45.97
59190;BME280;50749;51.636;4.948;2023-05-20T00:17:53;102493.28;;;19.12;45.41
59190;BME280;50749;51.636;4.948;2023-05-20T00:20:20;102490.19;;;19.14;45.68
59190;BME280;50749;51.636;4.948;2023-05-20T00:22:46;102484.97;;;19.12;45.40
59190;BME280;50749;51.636;4.948;2023-05-20T00:25:12;102482.19;;;19.12;45.91
59190;BME280;50749;51.636;4.948;2023-05-20T00:27:41;102486.91;;;19.11;45.66
59190;BME280;50749;51.636;4.948;2023-05-20T00:30:07;102489.19;;;19.09;45.45
59190;BME280;50749;51.636;4.948;2023-05-20T00:32:34;102488.38;;;19.09;45.84
59190;BME280;50749;51.636;4.948;2023-05-20T00:35:01;102487.56;;;19.08;45.74
59190;BME280;50749;51.636;4.948;2023-05-20T00:37:27;102488.69;;;19.07;45.42
59190;BME280;50749;51.636;4.948;2023-05-20T00:39:53;102489.50;;;19.08;45.80
59190;BME280;50749;51.636;4.948;2023-05-20T00:42:24;102487.91;;;19.07;45.98
59190;BME280;50749;51.636;4.948;2023-05-20T00:44:50;102485.13;;;19.07;45.74
59190;BME280;50749;51.636;4.948;2023-05-20T00:47:17;102484.31;;;19.06;45.73
59190;BME280;50749;51.636;4.948;2023-05-20T00:49:44;102486.56;;;19.04;45.81
59190;BME280;50749;51.636;4.948;2023-05-20T00:52:11;102484.63;;;19.05;45.75
59190;BME280;50749;51.636;4.948;2023-05-20T00:54:39;102476.31;;;19.05;45.64
59190;BME280;50749;51.636;4.948;2023-05-20T00:57:06;102475.81;;;19.03;45.71
59190;BME280;50749;51.636;4.948;2023-05-20T00:59:36;102474.69;;;19.04;45.71
59190;BME280;50749;51.636;4.948;2023-05-20T01:02:06;102467.50;;;19.03;45.95
59190;BME280;50749;51.636;4.948;2023-05-20T01:04:32;102470.28;;;19.03;46.04
59190;BME280;50749;51.636;4.948;2023-05-20T01:07:01;102465.88;;;19.02;45.57
59190;BME280;50749;51.636;4.948;2023-05-20T01:09:29;102470.94;;;19.00;45.76
59190;BME280;50749;51.636;4.948;2023-05-20T01:12:08;102468.19;;;19.00;45.65
59190;BME280;50749;51.636;4.948;2023-05-20T01:14:42;102466.22;;;19.00;45.49
59190;BME280;50749;51.636;4.948;2023-05-20T01:17:10;102465.41;;;19.00;46.02
59190;BME280;50749;51.636;4.948;2023-05-20T01:19:44;102464.25;;;19.01;45.49
59190;BME280;50749;51.636;4.948;2023-05-20T01:22:11;102465.41;;;19.00;45.52
59190;BME280;50749;51.636;4.948;2023-05-20T01:24:42;102461.00;;;18.99;45.92
59190;BME280;50749;51.636;4.948;2023-05-20T01:27:12;102463.75;;;18.99;46.02
59190;BME280;50749;51.636;4.948;2023-05-20T01:29:41;102456.56;;;18.98;45.60
59190;BME280;50749;51.636;4.948;2023-05-20T01:32:15;102463.28;;;18.97;45.83
59190;BME280;50749;51.636;4.948;2023-05-20T01:34:44;102457.72;;;18.97;45.81
59190;BME280;50749;51.636;4.948;2023-05-20T01:37:14;102445.00;;;18.96;45.79
59190;BME280;50749;51.636;4.948;2023-05-20T01:39:41;102456.91;;;18.96;45.53
59190;BME280;50749;51.636;4.948;2023-05-20T01:42:09;102451.69;;;18.94;45.80
59190;BME280;50749;51.636;4.948;2023-05-20T01:44:35;102443.72;;;18.93;45.55
59190;BME280;50749;51.636;4.948;2023-05-20T01:47:01;102435.41;;;18.93;45.97
59190;BME280;50749;51.636;4.948;2023-05-20T01:49:27;102443.38;;;18.94;45.76
59190;BME280;50749;51.636;4.948;2023-05-20T01:51:53;102444.53;;;18.93;45.99
59190;BME280;50749;51.636;4.948;2023-05-20T01:54:19;102438.97;;;18.93;45.83
59190;BME280;50749;51.636;4.948;2023-05-20T01:56:45;102450.41;;;18.92;46.03
59190;BME280;50749;51.636;4.948;2023-05-20T01:59:12;102444.03;;;18.91;46.14
59190;BME280;50749;51.636;4.948;2023-05-20T02:01:38;102442.41;;;18.90;45.68
59190;BME280;50749;51.636;4.948;2023-05-20T02:04:03;102447.94;;;18.90;45.87
59190;BME280;50749;51.636;4.948;2023-05-20T02:06:29;102430.50;;;18.90;45.90
59190;BME280;50749;51.636;4.948;2023-05-20T02:08:55;102436.06;;;18.90;45.61
59190;BME280;50749;51.636;4.948;2023-05-20T02:11:21;102441.59;;;18.90;45.73
59190;BME280;50749;51.636;4.948;2023-05-20T02:13:48;102438.00;;;18.89;45.93
59190;BME280;50749;51.636;4.948;2023-05-20T02:16:15;102430.84;;;18.88;45.88
59190;BME280;50749;51.636;4.948;2023-05-20T02:18:40;102433.59;;;18.88;45.79
59190;BME280;50749;51.636;4.948;2023-05-20T02:21:07;102439.16;;;18.88;45.66
59190;BME280;50749;51.636;4.948;2023-05-20T02:23:33;102436.69;;;18.87;45.65
59190;BME280;50749;51.636;4.948;2023-05-20T02:25:59;102433.94;;;18.87;45.59
59190;BME280;50749;51.636;4.948;2023-05-20T02:28:25;102433.94;;;18.87;46.07
59190;BME280;50749;51.636;4.948;2023-05-20T02:30:51;102429.53;;;18.86;45.89
59190;BME280;50749;51.636;4.948;2023-05-20T02:33:20;102429.53;;;18.86;45.72
59190;BME280;50749;51.636;4.948;2023-05-20T02:35:46;102424.81;;;18.86;46.17
59190;BME280;50749;51.636;4.948;2023-05-20T02:38:12;102420.41;;;18.85;46.29
59190;BME280;50749;51.636;4.948;2023-05-20T02:40:38;102423.16;;;18.85;45.92
59190;BME280;50749;51.636;4.948;2023-05-20T02:43:04;102437.03;;;18.85;46.08
59190;BME280;50749;51.636;4.948;2023-05-20T02:45:30;102427.91;;;18.85;45.94
59190;BME280;50749;51.636;4.948;2023-05-20T02:47:56;102425.13;;;18.85;45.94
59190;BME280;50749;51.636;4.948;2023-05-20T02:50:22;102425.47;;;18.83;46.21
59190;BME280;50749;51.636;4.948;2023-05-20T02:52:47;102428.22;;;18.83;46.04
59190;BME280;50749;51.636;4.948;2023-05-20T02:55:14;102419.91;;;18.83;45.84
59190;BME280;50749;51.636;4.948;2023-05-20T02:57:39;102429.31;;;18.82;46.13
59190;BME280;50749;51.636;4.948;2023-05-20T03:00:07;102427.72;;;18.81;46.10
59190;BME280;50749;51.636;4.948;2023-05-20T03:02:35;102429.66;;;18.81;45.71
59190;BME280;50749;51.636;4.948;2023-05-20T03:05:01;102426.56;;;18.82;46.15
59190;BME280;50749;51.636;4.948;2023-05-20T03:07:30;102427.72;;;18.81;45.70
59190;BME280;50749;51.636;4.948;2023-05-20T03:09:56;102426.06;;;18.80;45.81
59190;BME280;50749;51.636;4.948;2023-05-20T03:12:24;102431.63;;;18.80;46.29
59190;BME280;50749;51.636;4.948;2023-05-20T03:14:51;102423.63;;;18.79;46.29
59190;BME280;50749;51.636;4.948;2023-05-20T03:17:21;102425.59;;;18.78;45.86
59190;BME280;50749;51.636;4.948;2023-05-20T03:19:47;102417.28;;;18.78;45.92
59190;BME280;50749;51.636;4.948;2023-05-20T03:22:13;102422.00;;;18.78;46.21
59190;BME280;50749;51.636;4.948;2023-05-20T03:24:39;102424.75;;;18.78;45.81
59190;BME280;50749;51.636;4.948;2023-05-20T03:27:05;102428.69;;;18.77;46.05
59190;BME280;50749;51.636;4.948;2023-05-20T03:29:31;102425.91;;;18.77;46.06
59190;BME280;50749;51.636;4.948;2023-05-20T03:31:58;102427.03;;;18.75;46.38
59190;BME280;50749;51.636;4.948;2023-05-20T03:34:24;102430.63;;;18.76;46.42
59190;BME280;50749;51.636;4.948;2023-05-20T03:36:52;102425.91;;;18.77;46.14
59190;BME280;50749;51.636;4.948;2023-05-20T03:39:18;102426.25;;;18.75;46.09
59190;BME280;50749;51.636;4.948;2023-05-20T03:41:43;102429.00;;;18.75;46.01
59190;BME280;50749;51.636;4.948;2023-05-20T03:44:09;102425.44;;;18.74;45.93
59190;BME280;50749;51.636;4.948;2023-05-20T03:46:35;102422.66;;;18.74;45.88
59190;BME280;50749;51.636;4.948;2023-05-20T03:49:01;102420.69;;;18.75;46.40
59190;BME280;50749;51.636;4.948;2023-05-20T03:51:27;102422.66;;;18.74;46.35
59190;BME280;50749;51.636;4.948;2023-05-20T03:53:53;102415.16;;;18.75;45.97
59190;BME280;50749;51.636;4.948;2023-05-20T03:56:18;102416.28;;;18.74;46.01
59190;BME280;50749;51.636;4.948;2023-05-20T03:58:45;102421.81;;;18.74;46.25
59190;BME280;50749;51.636;4.948;2023-05-20T04:01:12;102416.28;;;18.74;46.30
59190;BME280;50749;51.636;4.948;2023-05-20T04:03:39;102419.38;;;18.72;46.45
59190;BME280;50749;51.636;4.948;2023-05-20T04:06:06;102414.69;;;18.73;46.17
59190;BME280;50749;51.636;4.948;2023-05-20T04:08:32;102420.22;;;18.73;46.07
59190;BME280;50749;51.636;4.948;2023-05-20T04:11:01;102423.00;;;18.73;45.91
59190;BME280;50749;51.636;4.948;2023-05-20T04:13:28;102420.22;;;18.73;46.23
59190;BME280;50749;51.636;4.948;2023-05-20T04:15:53;102421.81;;;18.74;45.97
59190;BME280;50749;51.636;4.948;2023-05-20T04:18:19;102431.28;;;18.73;46.22
59190;BME280;50749;51.636;4.948;2023-05-20T04:20:45;102420.22;;;18.73;46.48
59190;BME280;50749;51.636;4.948;2023-05-20T04:23:12;102420.22;;;18.73;46.15
59190;BME280;50749;51.636;4.948;2023-05-20T04:25:38;102432.91;;;18.74;46.13
59190;BME280;50749;51.636;4.948;2023-05-20T04:28:05;102432.59;;;18.75;46.03
59190;BME280;50749;51.636;4.948;2023-05-20T04:30:31;102436.16;;;18.76;46.15
59190;BME280;50749;51.636;4.948;2023-05-20T04:32:58;102437.00;;;18.77;46.19
59190;BME280;50749;51.636;4.948;2023-05-20T04:35:27;102430.63;;;18.76;45.96
59190;BME280;50749;51.636;4.948;2023-05-20T04:37:54;102429.00;;;18.75;46.21
59190;BME280;50749;51.636;4.948;2023-05-20T04:40:20;102425.09;;;18.76;45.99
59190;BME280;50749;51.636;4.948;2023-05-20T04:42:47;102425.09;;;18.76;46.13
59190;BME280;50749;51.636;4.948;2023-05-20T04:45:13;102424.75;;;18.78;46.33
59190;BME280;50749;51.636;4.948;2023-05-20T04:47:39;102421.34;;;18.81;46.04
59190;BME280;50749;51.636;4.948;2023-05-20T04:50:09;102418.94;;;18.88;46.17
59190;BME280;50749;51.636;4.948;2023-05-20T04:52:39;102429.19;;;18.96;45.71
59190;BME280;50749;51.636;4.948;2023-05-20T04:55:07;102413.25;;;18.93;45.80
59190;BME280;50749;51.636;4.948;2023-05-20T04:57:37;102410.94;;;19.04;45.53
59190;BME280;50749;51.636;4.948;2023-05-20T05:00:07;102420.50;;;19.33;45.45
59190;BME280;50749;51.636;4.948;2023-05-20T05:02:34;102425.16;;;19.76;44.24
59190;BME280;50749;51.636;4.948;2023-05-20T05:05:00;102418.75;;;19.84;44.28
59190;BME280;50749;51.636;4.948;2023-05-20T05:07:26;102409.84;;;19.99;44.01
59190;BME280;50749;51.636;4.948;2023-05-20T05:09:52;102417.22;;;20.25;42.98
59190;BME280;50749;51.636;4.948;2023-05-20T05:12:18;102424.97;;;20.40;42.90
59190;BME280;50749;51.636;4.948;2023-05-20T05:14:44;102407.88;;;20.51;42.63
59190;BME280;50749;51.636;4.948;2023-05-20T05:17:10;102409.94;;;20.63;42.53
59190;BME280;50749;51.636;4.948;2023-05-20T05:19:36;102411.84;;;20.71;42.72
59190;BME280;50749;51.636;4.948;2023-05-20T05:22:02;102401.03;;;20.78;42.25
59190;BME280;50749;51.636;4.948;2023-05-20T05:24:27;102400.81;;;20.83;42.09
59190;BME280;50749;51.636;4.948;2023-05-20T05:26:55;102398.16;;;20.87;42.11
59190;BME280;50749;51.636;4.948;2023-05-20T05:29:21;102395.50;;;20.90;42.15
59190;BME280;50749;51.636;4.948;2023-05-20T05:31:47;102405.94;;;20.93;42.19
59190;BME280;50749;51.636;4.948;2023-05-20T05:34:12;102402.84;;;20.95;41.94
59190;BME280;50749;51.636;4.948;2023-05-20T05:36:39;102409.53;;;20.94;42.41
59190;BME280;50749;51.636;4.948;2023-05-20T05:39:05;102411.97;;;20.95;42.11
59190;BME280;50749;51.636;4.948;2023-05-20T05:41:31;102408.72;;;20.93;42.03
59190;BME280;50749;51.636;4.948;2023-05-20T05:43:57;102407.56;;;20.94;42.76
59190;BME280;50749;51.636;4.948;2023-05-20T05:46:24;102402.34;;;20.93;42.55
59190;BME280;50749;51.636;4.948;2023-05-20T05:48:50;102402.53;;;20.88;43.26
59190;BME280;50749;51.636;4.948;2023-05-20T05:51:16;102401.63;;;20.84;43.50
59190;BME280;50749;51.636;4.948;2023-05-20T05:53:42;102406.56;;;20.78;43.41
59190;BME280;50749;51.636;4.948;2023-05-20T05:56:08;102394.38;;;20.70;44.20
59190;BME280;50749;51.636;4.948;2023-05-20T05:58:34;102401.78;;;20.57;44.07
59190;BME280;50749;51.636;4.948;2023-05-20T06:01:00;102401.72;;;20.45;44.61
59190;BME280;50749;51.636;4.948;2023-05-20T06:03:26;102402.94;;;20.35;45.01
59190;BME280;50749;51.636;4.948;2023-05-20T06:05:54;102407.06;;;20.29;45.36
59190;BME280;50749;51.636;4.948;2023-05-20T06:08:23;102411.53;;;20.21;45.63
59190;BME280;50749;51.636;4.948;2023-05-20T06:10:49;102412.84;;;20.15;46.08
59190;BME280;50749;51.636;4.948;2023-05-20T06:13:15;102415.03;;;20.10;46.13
59190;BME280;50749;51.636;4.948;2023-05-20T06:15:42;102414.06;;;20.06;46.44
59190;BME280;50749;51.636;4.948;2023-05-20T06:18:07;102403.97;;;20.01;46.36
59190;BME280;50749;51.636;4.948;2023-05-20T06:20:33;102404.31;;;19.99;46.19
59190;BME280;50749;51.636;4.948;2023-05-20T06:22:59;102405.09;;;20.00;46.86
59190;BME280;50749;51.636;4.948;2023-05-20T06:25:26;102398.75;;;19.99;46.35
59190;BME280;50749;51.636;4.948;2023-05-20T06:27:52;102401.34;;;20.04;46.75
59190;BME280;50749;51.636;4.948;2023-05-20T06:30:18;102402.47;;;20.03;46.62
59190;BME280;50749;51.636;4.948;2023-05-20T06:32:44;102390.56;;;20.03;46.48
59190;BME280;50749;51.636;4.948;2023-05-20T06:35:10;102396.44;;;20.01;46.62
59190;BME280;50749;51.636;4.948;2023-05-20T06:37:36;102395.31;;;20.02;46.35
59190;BME280;50749;51.636;4.948;2023-05-20T06:40:03;102388.59;;;20.03;47.09
59190;BME280;50749;51.636;4.948;2023-05-20T06:42:29;102390.69;;;20.07;46.66
59190;BME280;50749;51.636;4.948;2023-05-20T06:44:55;102385.16;;;20.07;46.71
59190;BME280;50749;51.636;4.948;2023-05-20T06:47:20;102388.72;;;20.07;46.89
59190;BME280;50749;51.636;4.948;2023-05-20T06:49:46;102380.75;;;20.06;47.29
59190;BME280;50749;51.636;4.948;2023-05-20T06:52:12;102380.75;;;20.06;46.66
59190;BME280;50749;51.636;4.948;2023-05-20T06:54:38;102382.38;;;20.07;46.92
59190;BME280;50749;51.636;4.948;2023-05-20T06:57:07;102385.94;;;20.07;47.25
59190;BME280;50749;51.636;4.948;2023-05-20T06:59:36;102376.63;;;20.12;46.72
59190;BME280;50749;51.636;4.948;2023-05-20T07:02:02;102381.25;;;20.08;47.29
59190;BME280;50749;51.636;4.948;2023-05-20T07:04:28;102381.25;;;20.08;47.01
59190;BME280;50749;51.636;4.948;2023-05-20T07:06:54;102370.13;;;20.08;47.34
59190;BME280;50749;51.636;4.948;2023-05-20T07:09:20;102380.22;;;20.12;47.67
59190;BME280;50749;51.636;4.948;2023-05-20T07:11:46;102376.28;;;20.13;47.33
59190;BME280;50749;51.636;4.948;2023-05-20T07:14:15;102373.19;;;20.15;47.18
59190;BME280;50749;51.636;4.948;2023-05-20T07:16:40;102375.16;;;20.14;47.79
59190;BME280;50749;51.636;4.948;2023-05-20T07:19:06;102372.03;;;20.16;47.36
59190;BME280;50749;51.636;4.948;2023-05-20T07:21:32;102366.00;;;20.14;47.16
59190;BME280;50749;51.636;4.948;2023-05-20T07:23:58;102365.66;;;20.15;47.55
59190;BME280;50749;51.636;4.948;2023-05-20T07:26:23;102361.75;;;20.16;47.38
59190;BME280;50749;51.636;4.948;2023-05-20T07:28:50;102360.75;;;20.21;47.06
59190;BME280;50749;51.636;4.948;2023-05-20T07:31:16;102360.41;;;20.22;47.24
59190;BME280;50749;51.636;4.948;2023-05-20T07:33:42;102366.97;;;20.18;46.76
59190;BME280;50749;51.636;4.948;2023-05-20T07:36:08;102357.31;;;20.15;46.96
59190;BME280;50749;51.636;4.948;2023-05-20T07:38:34;102358.97;;;20.16;47.17
59190;BME280;50749;51.636;4.948;2023-05-20T07:40:59;102358.16;;;20.16;47.03
59190;BME280;50749;51.636;4.948;2023-05-20T07:43:25;102352.09;;;20.14;46.71
59190;BME280;50749;51.636;4.948;2023-05-20T07:45:51;102354.09;;;20.13;46.97
59190;BME280;50749;51.636;4.948;2023-05-20T07:48:17;102347.72;;;20.13;46.82
59190;BME280;50749;51.636;4.948;2023-05-20T07:50:43;102345.41;;;20.15;46.66
59190;BME280;50749;51.636;4.948;2023-05-20T07:53:09;102338.22;;;20.14;46.85
59190;BME280;50749;51.636;4.948;2023-05-20T07:55:35;102346.88;;;20.12;46.89
59190;BME280;50749;51.636;4.948;2023-05-20T07:58:04;102348.19;;;20.15;47.08
59190;BME280;50749;51.636;4.948;2023-05-20T08:00:33;102343.13;;;20.17;46.94
59190;BME280;50749;51.636;4.948;2023-05-20T08:02:59;102343.41;;;20.24;46.71
59190;BME280;50749;51.636;4.948;2023-05-20T08:05:25;102343.22;;;20.29;46.34
59190;BME280;50749;51.636;4.948;2023-05-20T08:07:51;102335.94;;;20.37;46.67
59190;BME280;50749;51.636;4.948;2023-05-20T08:10:17;102336.91;;;20.41;46.61
59190;BME280;50749;51.636;4.948;2023-05-20T08:12:45;102327.53;;;20.46;46.37
59190;BME280;50749;51.636;4.948;2023-05-20T08:15:11;102330.09;;;20.51;46.39
59190;BME280;50749;51.636;4.948;2023-05-20T08:17:37;102325.38;;;20.51;46.48
59190;BME280;50749;51.636;4.948;2023-05-20T08:20:03;102322.25;;;20.53;46.05
59190;BME280;50749;51.636;4.948;2023-05-20T08:22:30;102327.13;;;20.56;46.17
59190;BME280;50749;51.636;4.948;2023-05-20T08:24:56;102319.28;;;20.58;46.13
59190;BME280;50749;51.636;4.948;2023-05-20T08:27:22;102315.31;;;20.59;46.15
59190;BME280;50749;51.636;4.948;2023-05-20T08:29:47;102320.06;;;20.58;45.93
59190;BME280;50749;51.636;4.948;2023-05-20T08:32:13;102313.84;;;20.62;46.30
59190;BME280;50749;51.636;4.948;2023-05-20T08:34:39;102316.84;;;20.56;46.33
59190;BME280;50749;51.636;4.948;2023-05-20T08:37:05;102315.06;;;20.52;46.80
59190;BME280;50749;51.636;4.948;2023-05-20T08:39:31;102317.38;;;20.50;46.58
59190;BME280;50749;51.636;4.948;2023-05-20T08:41:57;102315.63;;;20.45;45.89
59190;BME280;50749;51.636;4.948;2023-05-20T08:44:23;102319.53;;;20.44;46.20
59190;BME280;50749;51.636;4.948;2023-05-20T08:46:51;102313.50;;;20.42;46.36
59190;BME280;50749;51.636;4.948;2023-05-20T08:49:16;102309.13;;;20.41;45.67
59190;BME280;50749;51.636;4.948;2023-05-20T08:51:43;102308.16;;;20.37;45.28
59190;BME280;50749;51.636;4.948;2023-05-20T08:54:10;102303.28;;;20.34;45.21
59190;BME280;50749;51.636;4.948;2023-05-20T08:56:38;102297.59;;;20.30;45.39
59190;BME280;50749;51.636;4.948;2023-05-20T08:59:07;102298.28;;;20.27;45.08
59190;BME280;50749;51.636;4.948;2023-05-20T09:01:36;102298.41;;;20.31;45.42
59190;BME280;50749;51.636;4.948;2023-05-20T09:04:05;102300.84;;;20.32;44.91
59190;BME280;50749;51.636;4.948;2023-05-20T09:06:44;102294.97;;;20.34;44.97
59190;BME280;50749;51.636;4.948;2023-05-20T09:09:14;102297.72;;;20.34;44.33
59190;BME280;50749;51.636;4.948;2023-05-20T09:11:42;102293.00;;;20.34;44.59
59190;BME280;50749;51.636;4.948;2023-05-20T09:14:07;102290.22;;;20.34;44.47
59190;BME280;50749;51.636;4.948;2023-05-20T09:16:34;102280.06;;;20.38;44.87
59190;BME280;50749;51.636;4.948;2023-05-20T09:18:59;102284.47;;;20.39;44.67
59190;BME280;50749;51.636;4.948;2023-05-20T09:21:26;102290.50;;;20.41;44.59
59190;BME280;50749;51.636;4.948;2023-05-20T09:23:53;102285.41;;;20.44;44.57
59190;BME280;50749;51.636;4.948;2023-05-20T09:26:19;102262.38;;;20.43;44.69
59190;BME280;50749;51.636;4.948;2023-05-20T09:28:45;102262.03;;;20.45;44.50
59190;BME280;50749;51.636;4.948;2023-05-20T09:31:13;102273.50;;;20.43;44.55
59190;BME280;50749;51.636;4.948;2023-05-20T09:33:39;102279.16;;;20.47;44.72
59190;BME280;50749;51.636;4.948;2023-05-20T09:36:09;102272.69;;;20.42;43.89
59190;BME280;50749;51.636;4.948;2023-05-20T09:38:38;102267.47;;;20.41;44.38
59190;BME280;50749;51.636;4.948;2023-05-20T09:41:12;102258.78;;;20.42;44.44
59190;BME280;50749;51.636;4.948;2023-05-20T09:43:38;102259.25;;;20.45;44.28
59190;BME280;50749;51.636;4.948;2023-05-20T09:46:06;102266.41;;;20.46;44.26
59190;BME280;50749;51.636;4.948;2023-05-20T09:48:34;102262.50;;;20.47;44.67
59190;BME280;50749;51.636;4.948;2023-05-20T09:51:03;102263.19;;;20.44;44.46
59190;BME280;50749;51.636;4.948;2023-05-20T09:53:30;102248.50;;;20.43;44.40
59190;BME280;50749;51.636;4.948;2023-05-20T09:55:57;102253.72;;;20.45;44.63
59190;BME280;50749;51.636;4.948;2023-05-20T09:58:23;102249.75;;;20.46;44.87
59190;BME280;50749;51.636;4.948;2023-05-20T10:00:50;102251.84;;;20.49;43.97
59190;BME280;50749;51.636;4.948;2023-05-20T10:03:17;102254.63;;;20.49;44.61
59190;BME280;50749;51.636;4.948;2023-05-20T10:06:02;102251.06;;;20.48;44.16
59190;BME280;50749;51.636;4.948;2023-05-20T10:14:14;102248.16;;;20.45;45.31
59190;BME280;50749;51.636;4.948;2023-05-20T10:17:07;102241.41;;;20.46;44.14
59190;BME280;50749;51.636;4.948;2023-05-20T10:19:35;102240.41;;;20.50;44.28
59190;BME280;50749;51.636;4.948;2023-05-20T10:22:06;102249.06;;;20.49;44.40
59190;BME280;50749;51.636;4.948;2023-05-20T10:27:01;102234.50;;;20.52;44.45
59190;BME280;50749;51.636;4.948;2023-05-20T10:29:28;102229.28;;;20.50;44.75
59190;BME280;50749;51.636;4.948;2023-05-20T10:31:54;102234.50;;;20.52;44.80
59190;BME280;50749;51.636;4.948;2023-05-20T10:34:23;102239.84;;;20.57;44.83
59190;BME280;50749;51.636;4.948;2023-05-20T10:39:18;102237.84;;;20.66;44.35
59190;BME280;50749;51.636;4.948;2023-05-20T10:41:44;102222.09;;;20.70;44.45
59190;BME280;50749;51.636;4.948;2023-05-20T10:44:10;102221.41;;;20.73;44.39
59190;BME280;50749;51.636;4.948;2023-05-20T10:46:36;102221.06;;;20.75;44.65
59190;BME280;50749;51.636;4.948;2023-05-20T10:49:02;102231.84;;;20.76;44.83
59190;BME280;50749;51.636;4.948;2023-05-20T10:51:29;102222.31;;;20.77;44.02
59190;BME280;50749;51.636;4.948;2023-05-20T10:53:56;102214.81;;;20.78;44.54
59190;BME280;50749;51.636;4.948;2023-05-20T10:56:24;102227.53;;;20.79;44.70
59190;BME280;50749;51.636;4.948;2023-05-20T10:58:54;102210.06;;;20.78;44.05
59190;BME280;50749;51.636;4.948;2023-05-20T11:01:25;102221.19;;;20.78;44.27
59190;BME280;50749;51.636;4.948;2023-05-20T11:03:53;102219.31;;;20.83;44.17
59190;BME280;50749;51.636;4.948;2023-05-20T11:06:25;102215.41;;;20.84;44.39
59190;BME280;50749;51.636;4.948;2023-05-20T11:08:53;102214.59;;;20.83;44.26
59190;BME280;50749;51.636;4.948;2023-05-20T11:11:19;102199.53;;;20.84;44.20
59190;BME280;50749;51.636;4.948;2023-05-20T11:13:50;102199.53;;;20.84;44.16
59190;BME280;50749;51.636;4.948;2023-05-20T11:16:16;102201.50;;;20.84;44.60
59190;BME280;50749;51.636;4.948;2023-05-20T11:18:42;102200.34;;;20.85;44.09
59190;BME280;50749;51.636;4.948;2023-05-20T11:21:08;102195.94;;;20.84;43.92
59190;BME280;50749;51.636;4.948;2023-05-20T11:23:34;102199.53;;;20.84;44.03
59190;BME280;50749;51.636;4.948;2023-05-20T11:26:00;102188.28;;;20.81;44.18
59190;BME280;50749;51.636;4.948;2023-05-20T11:28:26;102192.38;;;20.83;44.19
59190;BME280;50749;51.636;4.948;2023-05-20T11:30:54;102189.25;;;20.85;44.05
59190;BME280;50749;51.636;4.948;2023-05-20T11:33:24;102188.41;;;20.84;44.48
59190;BME280;50749;51.636;4.948;2023-05-20T11:35:52;102180.91;;;20.85;44.31
59190;BME280;50749;51.636;4.948;2023-05-20T11:38:19;102182.03;;;20.84;44.18
59190;BME280;50749;51.636;4.948;2023-05-20T11:40:55;102179.28;;;20.84;44.41
59190;BME280;50749;51.636;4.948;2023-05-20T11:43:22;102170.94;;;20.84;44.19
59190;BME280;50749;51.636;4.948;2023-05-20T11:45:53;102180.41;;;20.83;44.34
59190;BME280;50749;51.636;4.948;2023-05-20T11:48:20;102175.69;;;20.83;44.57
59190;BME280;50749;51.636;4.948;2023-05-20T11:50:47;102170.94;;;20.84;44.77
59190;BME280;50749;51.636;4.948;2023-05-20T11:53:17;102166.50;;;20.83;44.79
59190;BME280;50749;51.636;4.948;2023-05-20T11:58:20;102157.16;;;20.75;45.43
59190;BME280;50749;51.636;4.948;2023-05-20T12:00:47;102169.41;;;20.74;45.37
59190;BME280;50749;51.636;4.948;2023-05-20T12:03:13;102167.66;;;20.69;45.80
59190;BME280;50749;51.636;4.948;2023-05-20T12:05:39;102163.28;;;20.68;45.86
59190;BME280;50749;51.636;4.948;2023-05-20T12:08:05;102160.63;;;20.72;45.45
59190;BME280;50749;51.636;4.948;2023-05-20T12:10:31;102157.72;;;20.68;45.89
59190;BME280;50749;51.636;4.948;2023-05-20T12:12:57;102159.47;;;20.73;45.49
59190;BME280;50749;51.636;4.948;2023-05-20T12:15:23;102157.50;;;20.73;45.78
59190;BME280;50749;51.636;4.948;2023-05-20T12:17:51;102160.72;;;20.75;45.75
59190;BME280;50749;51.636;4.948;2023-05-20T12:20:20;102152.84;;;20.77;45.71
59190;BME280;50749;51.636;4.948;2023-05-20T12:22:46;102138.16;;;20.77;45.23
59190;BME280;50749;51.636;4.948;2023-05-20T12:25:13;102150.75;;;20.74;45.29
59190;BME280;50749;51.636;4.948;2023-05-20T12:27:42;102145.69;;;20.76;45.18
59190;BME280;50749;51.636;4.948;2023-05-20T12:30:17;102150.06;;;20.77;45.20
59190;BME280;50749;51.636;4.948;2023-05-20T12:32:44;102140.94;;;20.77;45.38
59190;BME280;50749;51.636;4.948;2023-05-20T12:35:11;102141.72;;;20.77;45.24
59190;BME280;50749;51.636;4.948;2023-05-20T12:37:38;102129.00;;;20.76;45.55
59190;BME280;50749;51.636;4.948;2023-05-20T12:40:07;102132.94;;;20.75;45.19
59190;BME280;50749;51.636;4.948;2023-05-20T12:42:34;102142.06;;;20.76;45.55
59190;BME280;50749;51.636;4.948;2023-05-20T12:45:00;102139.31;;;20.76;45.41
59190;BME280;50749;51.636;4.948;2023-05-20T12:47:26;102138.94;;;20.77;45.76
59190;BME280;50749;51.636;4.948;2023-05-20T12:49:52;102133.41;;;20.77;45.83
59190;BME280;50749;51.636;4.948;2023-05-20T12:52:18;102133.88;;;20.80;45.61
59190;BME280;50749;51.636;4.948;2023-05-20T12:54:44;102132.25;;;20.78;45.82
59190;BME280;50749;51.636;4.948;2023-05-20T12:57:10;102129.34;;;20.75;45.54
59190;BME280;50749;51.636;4.948;2023-05-20T12:59:36;102128.06;;;20.72;45.72
59190;BME280;50749;51.636;4.948;2023-05-20T13:02:02;102127.63;;;20.70;46.11